Lonsdale, MN (55046)

4:27 PM CDT on August 27, 2015 (GMT -0500)
Harvest | | Change Station
CLOSE
Current Station
Personal Weather Station
Location: Lonsdale, MN
Elevation: 1102 ft
Nearby Weather Stations

Elev 1102 ft 44.48 °N, 93.42 °W | Updated 9 seconds ago

Partly Cloudy
Partly Cloudy
71.8 °F
Feels Like 74 °F
N
2.9
Wind Variable Wind from SSW
Gusts 6.0 mph

Today
High -- | Low -- °F
--% Chance of Precip.
Yesterday
High -- | Low -- °F
Precip. -- in
6:30 AM 7:59 PM
Waxing Gibbous, 95% visible
Pressure 30.05 in
Visibility 10.0 miles
Clouds Scattered Clouds 3900 ft
Heat Index 74 °F
Dew Point 63 °F
Humidity 73%
Rainfall 0.00 in
Snow Depth Not available.
UV 4 out of 12
Pollen 8.80 out of 12
Air Quality Not available.
Flu Activity Not available.
METAR KFBL 272114Z AUTO 16006KT 10SM RA SCT039 21/16 A3005 RMK AO2
Pressure 30.05 in
Visibility 10.0 miles
Clouds Scattered Clouds 3900 ft
Heat Index 74 °F
Dew Point 63 °F
Humidity 73%
Rainfall 0.00 in
Snow Depth Not available.
UV 4 out of 12
Pollen 8.80 out of 12
Air Quality Not available.
Flu Activity Not available.
METAR KFBL 272114Z AUTO 16006KT 10SM RA SCT039 21/16 A3005 RMK AO2

10-Day Weather Forecast

×

Almanac

Astronomy

Aug. 27, 2015 Rise Set
Actual Time
Civil Twilight
Nautical Twilight
Astronomical Twilight
Moon
Length of Visible Light
Length of Day
Tomorrow will be .
, % of the Moon is Illuminated

Today's Extremes

State Highs State Lows

Community

WunderPhotos

Upload Photos

1,850,235 photos uploaded!

WunderBlogs® & News

Nearby

Air Quality

  Air Quality AQ Index Pollutant
Not available.

Snow Depth

Station Depth Elevation

Earthquake Activity

City Distance Mag. Time & Date
Minimum magnitude displayed is 2.5.

Coastal Water Temperatures

Place Temperature

Stations

Nearby Weather Stations

Station Location Temp. Windchill Dew Point Humidity Wind Precip. Elev Updated Type